createdAt,value
2019-02-14T00:00:21.830Z,29.93
2019-02-14T00:02:50.763Z,27.63
2019-02-14T00:05:19.789Z,30.00
2019-02-14T00:07:48.757Z,27.73
2019-02-14T00:10:17.615Z,31.93
2019-02-14T00:12:46.503Z,27.43
2019-02-14T00:15:15.438Z,29.50
2019-02-14T00:17:44.397Z,28.73
2019-02-14T00:20:13.331Z,31.33
2019-02-14T00:22:42.341Z,33.13
2019-02-14T00:25:11.613Z,32.10
2019-02-14T00:27:40.543Z,33.70
2019-02-14T00:30:09.820Z,33.73
2019-02-14T00:32:38.736Z,31.20
2019-02-14T00:35:07.646Z,29.10
2019-02-14T00:42:56.178Z,34.60
2019-02-14T00:45:25.654Z,35.23
2019-02-14T00:47:54.913Z,33.93
2019-02-14T00:50:24.433Z,33.83
2019-02-14T00:52:53.853Z,33.57
2019-02-14T00:55:23.389Z,30.30
2019-02-14T00:57:52.861Z,37.90
2019-02-14T01:00:22.185Z,34.00
2019-02-14T01:02:51.573Z,34.60
2019-02-14T01:05:20.966Z,32.67
2019-02-14T01:07:50.423Z,31.80
2019-02-14T01:10:20.113Z,29.80
2019-02-14T01:12:49.587Z,28.00
2019-02-14T01:15:22.639Z,30.63
2019-02-14T01:17:52.045Z,30.37
2019-02-14T01:20:21.490Z,30.10
2019-02-14T01:22:59.274Z,30.83
2019-02-14T01:25:31.155Z,30.87
2019-02-14T01:28:00.613Z,31.33
2019-02-14T01:30:30.156Z,34.00
2019-02-14T01:32:59.499Z,29.30
2019-02-14T01:35:32.011Z,29.50
2019-02-14T01:38:01.378Z,29.67
2019-02-14T01:40:30.670Z,30.90
2019-02-14T01:43:00.179Z,31.53
2019-02-14T01:45:29.797Z,28.40
2019-02-14T01:47:59.145Z,27.53
2019-02-14T01:50:28.480Z,28.70
2019-02-14T01:56:38.012Z,29.77
2019-02-14T02:17:32.057Z,29.10
2019-02-14T02:25:19.648Z,28.53
2019-02-14T02:27:49.811Z,30.77
2019-02-14T02:30:18.956Z,27.80
2019-02-14T02:32:47.815Z,28.70
2019-02-14T02:35:16.810Z,27.73
2019-02-14T02:37:45.783Z,28.13
2019-02-14T02:40:14.696Z,31.33
2019-02-14T02:42:43.588Z,29.63
2019-02-14T02:45:13.020Z,30.50
2019-02-14T02:47:41.967Z,31.97
2019-02-14T02:50:12.880Z,30.23
2019-02-14T02:52:41.778Z,32.67
2019-02-14T02:55:10.806Z,38.20
2019-02-14T02:57:40.438Z,33.37
2019-02-14T03:00:13.055Z,34.97
2019-02-14T03:02:41.990Z,33.70
2019-02-14T03:05:12.043Z,32.73
2019-02-14T03:07:40.964Z,32.43
2019-02-14T03:10:10.658Z,32.87
2019-02-14T03:12:40.361Z,36.63
2019-02-14T03:15:10.682Z,30.27
2019-02-14T03:17:40.039Z,33.97
2019-02-14T03:20:10.832Z,29.93
2019-02-14T03:27:52.990Z,34.57
2019-02-14T03:30:22.352Z,32.13
2019-02-14T03:32:53.283Z,34.10
2019-02-14T03:35:22.912Z,37.67
2019-02-14T03:37:52.272Z,35.40
2019-02-14T03:40:21.632Z,34.30
2019-02-14T03:42:51.104Z,34.33
2019-02-14T03:45:20.569Z,34.50
2019-02-14T03:47:49.720Z,32.30
2019-02-14T03:53:01.609Z,32.63
2019-02-14T03:55:30.631Z,32.70
2019-02-14T03:57:59.668Z,31.37
2019-02-14T04:00:28.703Z,33.13
2019-02-14T04:02:57.608Z,34.17
2019-02-14T04:05:26.563Z,32.73
2019-02-14T04:07:55.446Z,30.70
2019-02-14T04:10:24.471Z,29.83
2019-02-14T04:12:53.330Z,29.03
2019-02-14T04:15:22.224Z,28.90
2019-02-14T04:17:51.186Z,27.30
2019-02-14T04:20:20.162Z,29.83
2019-02-14T04:22:49.014Z,30.87
2019-02-14T04:25:17.918Z,31.07
2019-02-14T04:27:46.810Z,34.03
2019-02-14T04:30:15.829Z,30.97
2019-02-14T04:32:44.694Z,31.47
2019-02-14T04:35:13.622Z,33.10
2019-02-14T04:45:43.498Z,31.73
2019-02-14T04:48:12.682Z,33.47
2019-02-14T04:50:41.686Z,31.73
2019-02-14T04:53:10.682Z,32.07
2019-02-14T05:03:39.380Z,31.00
2019-02-14T05:06:47.932Z,28.47
2019-02-14T05:09:16.997Z,33.37
2019-02-14T05:11:47.446Z,28.77
2019-02-14T05:14:16.716Z,28.17
2019-02-14T05:16:45.827Z,30.17
2019-02-14T05:19:14.986Z,26.53
2019-02-14T05:21:44.025Z,27.13
2019-02-14T05:24:13.305Z,28.83
2019-02-14T05:26:43.291Z,26.40
2019-02-14T05:37:13.367Z,28.67
2019-02-14T05:39:42.541Z,30.20
2019-02-14T05:45:41.135Z,31.87
2019-02-14T05:48:11.762Z,29.37
2019-02-14T05:50:45.174Z,29.57
2019-02-14T05:53:16.260Z,26.77
2019-02-14T05:55:47.051Z,28.17
2019-02-14T06:04:34.883Z,27.73
2019-02-14T06:07:04.343Z,29.37
2019-02-14T06:09:35.639Z,26.73
2019-02-14T06:18:03.779Z,25.53
2019-02-14T06:20:33.653Z,25.37
2019-02-14T06:39:40.499Z,24.40
2019-02-14T06:47:34.816Z,27.63
2019-02-14T07:03:23.526Z,26.50
2019-02-14T07:05:52.451Z,28.93
2019-02-14T07:08:21.336Z,25.13
2019-02-14T07:10:50.171Z,26.50
2019-02-14T07:13:19.083Z,28.10
2019-02-14T07:15:47.922Z,26.97
2019-02-14T07:18:16.867Z,25.53
2019-02-14T07:20:45.727Z,26.20
2019-02-14T07:23:14.610Z,25.60
2019-02-14T07:25:43.600Z,23.67
2019-02-14T07:28:12.454Z,24.60
2019-02-14T07:30:41.295Z,26.73
2019-02-14T07:33:10.309Z,24.83
2019-02-14T07:35:39.156Z,26.37
2019-02-14T07:38:08.083Z,30.40
2019-02-14T07:40:36.971Z,26.93
2019-02-14T07:43:05.912Z,25.03
2019-02-14T07:45:34.846Z,28.03
2019-02-14T07:48:03.870Z,23.37
2019-02-14T07:53:08.639Z,23.50
2019-02-14T07:55:37.673Z,23.70
2019-02-14T07:58:06.636Z,21.67
2019-02-14T08:00:35.701Z,22.77
2019-02-14T08:03:04.643Z,26.07
2019-02-14T08:05:33.516Z,26.37
2019-02-14T08:08:02.704Z,25.27
2019-02-14T08:10:31.726Z,23.50
2019-02-14T08:43:29.219Z,17.77
2019-02-14T08:59:27.246Z,16.03
2019-02-14T09:38:26.340Z,13.50
2019-02-14T09:52:08.935Z,14.67
2019-02-14T09:55:09.303Z,14.40
2019-02-14T10:09:24.232Z,13.67
2019-02-14T10:14:32.635Z,14.90
2019-02-14T10:17:01.484Z,14.10
2019-02-14T10:19:30.503Z,13.43
2019-02-14T10:21:59.529Z,13.70
2019-02-14T10:24:28.452Z,12.00
2019-02-14T10:26:57.386Z,13.50
2019-02-14T10:29:26.285Z,15.63
2019-02-14T10:31:55.155Z,12.23
2019-02-14T10:34:24.052Z,13.03
2019-02-14T10:36:52.955Z,13.10
2019-02-14T10:39:21.976Z,12.27
2019-02-14T10:41:50.983Z,13.60
2019-02-14T10:44:19.918Z,12.80
2019-02-14T10:46:48.985Z,12.67
2019-02-14T10:49:17.887Z,11.70
2019-02-14T10:51:46.878Z,12.23
2019-02-14T10:54:15.875Z,11.43
2019-02-14T10:56:44.861Z,12.33
2019-02-14T10:59:13.810Z,11.83
2019-02-14T11:01:42.839Z,12.70
2019-02-14T11:04:11.859Z,12.40
2019-02-14T11:06:40.786Z,13.10
2019-02-14T11:09:09.812Z,13.37
2019-02-14T11:11:38.704Z,11.83
2019-02-14T11:14:07.680Z,10.13
2019-02-14T11:16:36.708Z,11.97
2019-02-14T11:19:05.823Z,11.17
2019-02-14T11:21:53.887Z,10.63
2019-02-14T11:24:23.354Z,11.17
2019-02-14T11:26:52.264Z,8.93
2019-02-14T11:29:21.139Z,8.50
2019-02-14T11:31:50.081Z,11.07
2019-02-14T11:34:19.036Z,8.33
2019-02-14T11:36:47.939Z,10.50
2019-02-14T11:39:16.949Z,8.73
2019-02-14T11:41:45.858Z,9.13
2019-02-14T11:44:14.734Z,9.97
2019-02-14T11:46:51.318Z,9.23
2019-02-14T11:49:14.570Z,9.63
2019-02-14T11:51:43.582Z,10.20
2019-02-14T11:54:12.547Z,7.77
2019-02-14T11:56:41.451Z,8.37
2019-02-14T11:59:10.339Z,8.67
2019-02-14T12:01:39.276Z,7.57
2019-02-14T12:04:08.273Z,8.20
2019-02-14T12:06:37.216Z,7.93
2019-02-14T12:09:06.653Z,8.33
2019-02-14T12:11:35.539Z,8.07
2019-02-14T12:14:04.516Z,7.93
2019-02-14T12:16:33.353Z,9.23
2019-02-14T12:19:02.335Z,9.70
2019-02-14T12:21:31.197Z,9.60
2019-02-14T12:24:00.133Z,9.07
2019-02-14T12:26:29.006Z,6.77
2019-02-14T12:28:57.843Z,7.30
2019-02-14T12:31:26.927Z,7.00
2019-02-14T12:33:55.907Z,6.93
2019-02-14T12:36:24.752Z,7.57
2019-02-14T12:38:53.719Z,7.90
2019-02-14T12:41:22.735Z,7.10
2019-02-14T12:43:51.622Z,9.43
2019-02-14T12:46:20.553Z,7.70
2019-02-14T12:48:49.432Z,7.13
2019-02-14T12:51:18.368Z,7.10
2019-02-14T12:53:47.248Z,6.37
2019-02-14T12:56:16.209Z,8.47
2019-02-14T12:58:45.017Z,6.30
2019-02-14T13:01:13.963Z,5.47
2019-02-14T13:03:42.810Z,7.00
2019-02-14T13:06:11.764Z,6.60
2019-02-14T13:08:40.575Z,5.97
2019-02-14T13:11:09.418Z,7.10
2019-02-14T13:13:38.251Z,6.97
2019-02-14T13:16:07.153Z,5.70
2019-02-14T13:18:36.088Z,5.33
2019-02-14T13:21:05.064Z,6.30
2019-02-14T13:23:33.903Z,5.17
2019-02-14T13:26:02.874Z,4.70
2019-02-14T13:28:31.692Z,6.93
2019-02-14T13:31:00.607Z,5.53
2019-02-14T13:33:29.449Z,3.97
2019-02-14T13:35:58.290Z,4.10
2019-02-14T13:38:27.114Z,4.03
2019-02-14T13:40:55.990Z,3.50
2019-02-14T13:43:24.816Z,3.37
2019-02-14T13:45:53.650Z,2.87
2019-02-14T13:48:22.493Z,3.33
2019-02-14T13:50:52.070Z,3.83
2019-02-14T13:53:21.071Z,4.67
2019-02-14T13:55:49.974Z,3.63
2019-02-14T13:58:18.956Z,3.93
2019-02-14T14:00:47.879Z,4.43
2019-02-14T14:03:16.815Z,4.20
2019-02-14T14:05:45.733Z,3.93
2019-02-14T14:08:14.596Z,3.70
2019-02-14T14:10:43.517Z,5.27
2019-02-14T14:13:12.443Z,5.40
2019-02-14T14:15:41.334Z,5.60
2019-02-14T14:18:10.186Z,5.00
2019-02-14T14:20:39.024Z,5.60
2019-02-14T14:23:07.988Z,4.73
2019-02-14T14:25:36.907Z,4.83
2019-02-14T14:28:05.842Z,5.90
2019-02-14T14:30:34.746Z,5.20
2019-02-14T14:33:03.690Z,4.97
2019-02-14T14:35:32.545Z,5.40
2019-02-14T14:38:01.412Z,5.53
2019-02-14T14:40:30.303Z,5.27
2019-02-14T14:43:18.249Z,5.70
2019-02-14T14:45:58.082Z,6.07
2019-02-14T14:48:30.080Z,6.17
2019-02-14T14:50:58.898Z,5.10
2019-02-14T14:53:27.760Z,5.87
2019-02-14T14:55:56.593Z,4.90
2019-02-14T14:58:25.442Z,5.70
2019-02-14T15:00:54.335Z,5.77
2019-02-14T15:03:23.204Z,5.67
2019-02-14T15:05:52.163Z,6.33
2019-02-14T15:08:21.058Z,5.20
2019-02-14T15:10:49.871Z,6.47
2019-02-14T15:13:18.699Z,4.80
2019-02-14T15:15:47.535Z,5.73
2019-02-14T15:18:16.335Z,5.60
2019-02-14T15:20:45.312Z,6.20
2019-02-14T15:23:14.145Z,5.30
2019-02-14T15:25:43.011Z,4.53
2019-02-14T15:28:11.899Z,4.60
2019-02-14T15:30:40.765Z,5.60
2019-02-14T15:33:09.629Z,5.87
2019-02-14T15:35:38.567Z,3.90
2019-02-14T15:38:09.545Z,4.67
2019-02-14T15:40:38.033Z,5.43
2019-02-14T15:43:07.009Z,4.93
2019-02-14T15:45:35.855Z,5.13
2019-02-14T15:48:04.759Z,5.13
2019-02-14T15:50:33.588Z,4.83
2019-02-14T15:53:02.426Z,6.70
2019-02-14T15:55:31.279Z,6.37
2019-02-14T15:58:00.109Z,4.77
2019-02-14T16:00:30.670Z,5.83
2019-02-14T16:02:59.555Z,4.53
2019-02-14T16:05:28.459Z,4.77
2019-02-14T16:07:57.263Z,4.13
2019-02-14T16:10:27.758Z,6.67
2019-02-14T16:12:56.728Z,5.77
2019-02-14T16:15:25.546Z,5.27
2019-02-14T16:17:54.370Z,5.03
2019-02-14T16:20:23.211Z,5.57
2019-02-14T16:22:52.042Z,4.63
2019-02-14T16:25:22.514Z,5.13
2019-02-14T16:27:53.079Z,3.73
2019-02-14T16:30:21.948Z,5.43
2019-02-14T16:32:50.743Z,4.77
2019-02-14T16:35:19.660Z,5.30
2019-02-14T16:37:50.446Z,4.97
2019-02-14T16:40:27.471Z,5.37
2019-02-14T16:42:49.995Z,4.23
2019-02-14T16:45:18.831Z,6.40
2019-02-14T16:47:47.717Z,5.47
2019-02-14T16:50:16.623Z,5.57
2019-02-14T16:52:45.447Z,4.10
2019-02-14T16:55:14.282Z,5.53
2019-02-14T16:57:43.099Z,6.63
2019-02-14T17:00:12.398Z,6.40
2019-02-14T17:02:41.303Z,6.37
2019-02-14T17:07:58.319Z,5.10
2019-02-14T17:10:36.291Z,4.30
2019-02-14T17:13:17.082Z,5.30
2019-02-14T17:15:45.927Z,5.77
2019-02-14T17:18:14.742Z,8.17
2019-02-14T17:20:43.649Z,8.47
2019-02-14T17:23:12.453Z,6.20
2019-02-14T17:25:41.279Z,4.60
2019-02-14T17:28:10.100Z,5.90
2019-02-14T17:30:38.983Z,7.53
2019-02-14T17:33:07.786Z,7.07
2019-02-14T17:35:36.595Z,6.43
2019-02-14T17:38:05.574Z,10.03
2019-02-14T17:40:34.400Z,6.77
2019-02-14T17:43:03.238Z,5.70
2019-02-14T17:45:32.027Z,6.77
2019-02-14T17:48:00.862Z,7.70
2019-02-14T17:50:29.730Z,7.73
2019-02-14T17:52:58.550Z,9.63
2019-02-14T17:55:27.343Z,6.57
2019-02-14T17:57:56.174Z,8.53
2019-02-14T18:00:25.440Z,6.50
2019-02-14T18:02:54.819Z,9.47
2019-02-14T18:05:24.253Z,6.33
2019-02-14T18:07:53.212Z,6.83
2019-02-14T18:10:22.320Z,5.80
2019-02-14T18:12:51.288Z,6.13
2019-02-14T18:15:20.398Z,7.07
2019-02-14T18:17:49.896Z,9.37
2019-02-14T18:20:18.910Z,6.87
2019-02-14T18:22:48.085Z,8.43
2019-02-14T18:25:17.538Z,9.47
2019-02-14T18:27:46.599Z,8.03
2019-02-14T18:30:16.257Z,7.63
2019-02-14T18:32:46.884Z,9.10
2019-02-14T18:35:16.007Z,10.10
2019-02-14T18:37:44.995Z,8.67
2019-02-14T18:40:14.147Z,8.87
2019-02-14T18:42:43.192Z,6.07
2019-02-14T18:45:13.036Z,7.30
2019-02-14T18:47:42.064Z,7.57
2019-02-14T18:50:11.547Z,7.27
2019-02-14T18:52:40.639Z,7.67
2019-02-14T18:55:09.819Z,7.20
2019-02-14T18:57:38.619Z,7.93
2019-02-14T19:00:10.503Z,8.10
2019-02-14T19:02:39.437Z,8.27
2019-02-14T19:05:09.394Z,7.23
2019-02-14T19:07:38.232Z,7.33
2019-02-14T19:10:08.510Z,8.77
2019-02-14T19:12:37.371Z,7.80
2019-02-14T19:15:06.803Z,8.47
2019-02-14T19:17:35.656Z,8.20
2019-02-14T19:20:05.266Z,7.00
2019-02-14T19:22:34.160Z,8.87
2019-02-14T19:25:02.964Z,6.67
2019-02-14T19:27:31.786Z,7.70
2019-02-14T19:30:00.602Z,7.40
2019-02-14T19:32:29.441Z,6.17
2019-02-14T19:34:58.270Z,6.80
2019-02-14T19:37:27.140Z,5.37
2019-02-14T19:39:55.970Z,6.47
2019-02-14T19:42:24.868Z,8.83
2019-02-14T19:44:53.705Z,9.77
2019-02-14T19:47:22.563Z,6.53
2019-02-14T19:49:51.490Z,5.10
2019-02-14T19:52:20.355Z,5.97
2019-02-14T19:54:49.198Z,6.20
2019-02-14T19:57:18.125Z,7.00
2019-02-14T19:59:47.004Z,7.00
2019-02-14T20:02:15.830Z,6.00
2019-02-14T20:04:44.670Z,6.57
2019-02-14T20:07:13.599Z,6.57
2019-02-14T20:09:42.415Z,6.83
2019-02-14T20:12:11.327Z,8.90
2019-02-14T20:14:40.160Z,8.60
2019-02-14T20:17:09.010Z,9.83
2019-02-14T20:19:37.834Z,8.40
2019-02-14T20:22:06.778Z,7.17
2019-02-14T20:24:35.929Z,7.13
2019-02-14T20:27:04.838Z,8.47
2019-02-14T20:29:33.639Z,7.97
2019-02-14T20:32:02.479Z,7.43
2019-02-14T20:34:31.310Z,6.90
2019-02-14T20:37:00.101Z,6.53
2019-02-14T20:39:28.915Z,6.50
2019-02-14T20:41:57.784Z,6.87
2019-02-14T20:44:26.605Z,5.77
2019-02-14T20:46:55.471Z,6.33
2019-02-14T20:49:24.378Z,5.47
2019-02-14T20:51:54.119Z,7.27
2019-02-14T20:54:22.947Z,6.10
2019-02-14T20:56:51.829Z,5.17
2019-02-14T20:59:20.643Z,6.23
2019-02-14T21:01:49.535Z,5.87
2019-02-14T21:04:18.377Z,7.00
2019-02-14T21:06:47.353Z,9.30
2019-02-14T21:09:16.235Z,4.83
2019-02-14T21:11:54.242Z,5.97
2019-02-14T21:14:15.839Z,5.47
2019-02-14T21:16:44.644Z,7.97
2019-02-14T21:19:13.475Z,5.93
2019-02-14T21:21:42.365Z,6.33
2019-02-14T21:24:11.183Z,6.13
2019-02-14T21:26:40.087Z,6.07
2019-02-14T21:29:08.996Z,7.07
2019-02-14T21:31:38.130Z,8.47
2019-02-14T21:34:07.223Z,6.27
2019-02-14T21:36:36.108Z,6.37
2019-02-14T21:39:06.654Z,6.07
2019-02-14T21:41:35.534Z,7.03
2019-02-14T21:44:04.417Z,7.13
2019-02-14T21:46:33.340Z,7.17
2019-02-14T21:49:02.203Z,6.80
2019-02-14T21:51:31.010Z,6.83
2019-02-14T21:53:59.847Z,4.83
2019-02-14T21:56:28.873Z,9.90
2019-02-14T21:58:57.745Z,5.20
2019-02-14T22:01:27.632Z,4.83
2019-02-14T22:03:56.550Z,5.90
2019-02-14T22:06:25.595Z,5.30
2019-02-14T22:08:54.411Z,7.37
2019-02-14T22:11:23.330Z,5.10
2019-02-14T22:13:52.213Z,7.10
2019-02-14T22:16:21.254Z,6.27
2019-02-14T22:18:50.095Z,7.73
2019-02-14T22:21:18.924Z,6.23
2019-02-14T22:23:47.814Z,6.80
2019-02-14T22:26:16.631Z,6.27
2019-02-14T22:28:45.431Z,5.83
2019-02-14T22:31:14.236Z,6.03
2019-02-14T22:33:43.108Z,7.20
2019-02-14T22:36:12.001Z,4.40
2019-02-14T22:38:40.812Z,6.67
2019-02-14T22:41:09.620Z,6.30
2019-02-14T22:43:38.447Z,7.97
2019-02-14T22:46:07.318Z,7.20
2019-02-14T22:48:36.144Z,4.83
2019-02-14T22:51:05.023Z,5.43
2019-02-14T22:53:33.831Z,5.67
2019-02-14T22:56:02.635Z,5.80
2019-02-14T22:58:31.456Z,6.37
2019-02-14T23:01:01.118Z,6.80
2019-02-14T23:03:30.141Z,7.33
2019-02-14T23:05:59.017Z,6.07
2019-02-14T23:08:27.853Z,5.83
2019-02-14T23:10:56.732Z,6.23
2019-02-14T23:13:25.562Z,5.27
2019-02-14T23:16:13.631Z,7.57
2019-02-14T23:18:42.448Z,9.73
2019-02-14T23:21:11.251Z,7.07
2019-02-14T23:23:40.062Z,4.83
2019-02-14T23:26:08.870Z,6.27
2019-02-14T23:28:37.713Z,5.53
2019-02-14T23:31:06.622Z,5.83
2019-02-14T23:33:35.450Z,7.30
2019-02-14T23:36:04.321Z,8.20
2019-02-14T23:38:33.106Z,4.77
2019-02-14T23:41:01.907Z,7.17
2019-02-14T23:43:30.702Z,8.57
2019-02-14T23:45:59.527Z,5.67
2019-02-14T23:48:28.312Z,6.77
2019-02-14T23:50:57.202Z,5.23
2019-02-14T23:53:26.018Z,5.50
2019-02-14T23:55:54.832Z,5.70
2019-02-14T23:58:23.630Z,5.27
